sensor_id;sensor_type;location;lat;lon;timestamp;P1;durP1;ratioP1;P2;durP2;ratioP2
74632;SDS011;63139;52.018;8.552;2023-04-01T00:00:29;3.17;;;1.27;;
74632;SDS011;63139;52.018;8.552;2023-04-01T00:02:58;2.58;;;1.20;;
74632;SDS011;63139;52.018;8.552;2023-04-01T00:05:26;2.47;;;1.38;;
74632;SDS011;63139;52.018;8.552;2023-04-01T00:07:54;3.55;;;1.40;;
74632;SDS011;63139;52.018;8.552;2023-04-01T00:10:23;2.75;;;1.30;;
74632;SDS011;63139;52.018;8.552;2023-04-01T00:12:51;5.20;;;1.23;;
74632;SDS011;63139;52.018;8.552;2023-04-01T00:15:19;1.58;;;1.10;;
74632;SDS011;63139;52.018;8.552;2023-04-01T00:17:48;2.35;;;1.10;;
74632;SDS011;63139;52.018;8.552;2023-04-01T00:20:15;3.60;;;1.00;;
74632;SDS011;63139;52.018;8.552;2023-04-01T00:22:43;1.70;;;0.98;;
74632;SDS011;63139;52.018;8.552;2023-04-01T00:25:11;1.33;;;1.00;;
74632;SDS011;63139;52.018;8.552;2023-04-01T00:27:41;1.52;;;1.10;;
74632;SDS011;63139;52.018;8.552;2023-04-01T00:30:09;2.60;;;1.00;;
74632;SDS011;63139;52.018;8.552;2023-04-01T00:32:37;3.78;;;1.20;;
74632;SDS011;63139;52.018;8.552;2023-04-01T00:35:06;4.22;;;1.50;;
74632;SDS011;63139;52.018;8.552;2023-04-01T00:37:34;2.30;;;1.10;;
74632;SDS011;63139;52.018;8.552;2023-04-01T00:40:03;2.08;;;1.00;;
74632;SDS011;63139;52.018;8.552;2023-04-01T00:45:26;1.60;;;0.93;;
74632;SDS011;63139;52.018;8.552;2023-04-01T00:48:01;1.67;;;0.90;;
74632;SDS011;63139;52.018;8.552;2023-04-01T00:50:33;1.45;;;1.00;;
74632;SDS011;63139;52.018;8.552;2023-04-01T00:53:02;1.85;;;0.95;;
74632;SDS011;63139;52.018;8.552;2023-04-01T00:55:33;2.65;;;1.00;;
74632;SDS011;63139;52.018;8.552;2023-04-01T00:58:07;4.72;;;1.13;;
74632;SDS011;63139;52.018;8.552;2023-04-01T01:00:41;4.82;;;1.10;;
74632;SDS011;63139;52.018;8.552;2023-04-01T01:03:09;3.15;;;1.00;;
74632;SDS011;63139;52.018;8.552;2023-04-01T01:05:46;3.25;;;1.10;;
74632;SDS011;63139;52.018;8.552;2023-04-01T01:08:27;1.45;;;0.85;;
74632;SDS011;63139;52.018;8.552;2023-04-01T01:11:07;1.45;;;0.85;;
74632;SDS011;63139;52.018;8.552;2023-04-01T01:13:41;1.38;;;1.00;;
74632;SDS011;63139;52.018;8.552;2023-04-01T01:16:21;2.90;;;0.85;;
74632;SDS011;63139;52.018;8.552;2023-04-01T01:18:53;2.08;;;0.95;;
74632;SDS011;63139;52.018;8.552;2023-04-01T01:21:30;3.10;;;1.05;;
74632;SDS011;63139;52.018;8.552;2023-04-01T01:24:28;1.25;;;0.65;;
74632;SDS011;63139;52.018;8.552;2023-04-01T01:27:05;5.88;;;1.00;;
74632;SDS011;63139;52.018;8.552;2023-04-01T01:29:40;2.92;;;1.05;;
74632;SDS011;63139;52.018;8.552;2023-04-01T01:32:20;2.65;;;0.90;;
74632;SDS011;63139;52.018;8.552;2023-04-01T01:35:06;4.18;;;1.00;;
74632;SDS011;63139;52.018;8.552;2023-04-01T01:37:48;1.05;;;0.60;;
74632;SDS011;63139;52.018;8.552;2023-04-01T01:40:20;1.13;;;0.63;;
74632;SDS011;63139;52.018;8.552;2023-04-01T01:42:50;1.45;;;0.70;;
74632;SDS011;63139;52.018;8.552;2023-04-01T01:45:22;1.75;;;0.68;;
74632;SDS011;63139;52.018;8.552;2023-04-01T01:47:52;3.03;;;0.90;;
74632;SDS011;63139;52.018;8.552;2023-04-01T01:50:25;0.70;;;0.70;;
74632;SDS011;63139;52.018;8.552;2023-04-01T01:53:00;0.82;;;0.65;;
74632;SDS011;63139;52.018;8.552;2023-04-01T01:55:30;1.00;;;0.70;;
74632;SDS011;63139;52.018;8.552;2023-04-01T01:58:00;1.52;;;0.60;;
74632;SDS011;63139;52.018;8.552;2023-04-01T02:00:33;1.13;;;0.70;;
74632;SDS011;63139;52.018;8.552;2023-04-01T02:03:02;0.77;;;0.60;;
74632;SDS011;63139;52.018;8.552;2023-04-01T02:05:33;1.33;;;0.70;;
74632;SDS011;63139;52.018;8.552;2023-04-01T02:08:08;2.55;;;0.90;;
74632;SDS011;63139;52.018;8.552;2023-04-01T02:10:39;2.17;;;0.80;;
74632;SDS011;63139;52.018;8.552;2023-04-01T02:13:15;0.57;;;0.55;;
74632;SDS011;63139;52.018;8.552;2023-04-01T02:15:47;0.60;;;0.60;;
74632;SDS011;63139;52.018;8.552;2023-04-01T02:18:18;0.60;;;0.60;;
74632;SDS011;63139;52.018;8.552;2023-04-01T02:20:48;1.30;;;0.70;;
74632;SDS011;63139;52.018;8.552;2023-04-01T02:23:17;1.13;;;0.60;;
74632;SDS011;63139;52.018;8.552;2023-04-01T02:25:45;1.70;;;0.80;;
74632;SDS011;63139;52.018;8.552;2023-04-01T02:28:16;0.63;;;0.60;;
74632;SDS011;63139;52.018;8.552;2023-04-01T02:30:47;3.55;;;0.65;;
74632;SDS011;63139;52.018;8.552;2023-04-01T02:33:17;2.83;;;0.65;;
74632;SDS011;63139;52.018;8.552;2023-04-01T02:35:50;2.85;;;0.80;;
74632;SDS011;63139;52.018;8.552;2023-04-01T02:38:18;2.45;;;0.77;;
74632;SDS011;63139;52.018;8.552;2023-04-01T02:40:47;1.33;;;0.63;;
74632;SDS011;63139;52.018;8.552;2023-04-01T02:43:16;2.90;;;0.65;;
74632;SDS011;63139;52.018;8.552;2023-04-01T02:45:45;1.33;;;0.70;;
74632;SDS011;63139;52.018;8.552;2023-04-01T02:48:12;2.08;;;0.50;;
74632;SDS011;63139;52.018;8.552;2023-04-01T02:50:40;1.67;;;0.70;;
74632;SDS011;63139;52.018;8.552;2023-04-01T02:53:10;0.93;;;0.60;;
74632;SDS011;63139;52.018;8.552;2023-04-01T02:55:38;2.05;;;0.70;;
74632;SDS011;63139;52.018;8.552;2023-04-01T02:58:06;1.33;;;0.52;;
74632;SDS011;63139;52.018;8.552;2023-04-01T03:00:33;3.85;;;0.70;;
74632;SDS011;63139;52.018;8.552;2023-04-01T03:03:01;1.98;;;0.75;;
74632;SDS011;63139;52.018;8.552;2023-04-01T03:05:30;1.85;;;0.70;;
74632;SDS011;63139;52.018;8.552;2023-04-01T03:07:58;0.90;;;0.60;;
74632;SDS011;63139;52.018;8.552;2023-04-01T03:10:27;2.47;;;0.70;;
74632;SDS011;63139;52.018;8.552;2023-04-01T03:12:55;2.13;;;0.80;;
74632;SDS011;63139;52.018;8.552;2023-04-01T03:15:23;0.93;;;0.63;;
74632;SDS011;63139;52.018;8.552;2023-04-01T03:17:51;2.38;;;0.73;;
74632;SDS011;63139;52.018;8.552;2023-04-01T03:20:18;0.88;;;0.50;;
74632;SDS011;63139;52.018;8.552;2023-04-01T03:22:46;1.15;;;0.70;;
74632;SDS011;63139;52.018;8.552;2023-04-01T03:25:14;1.90;;;0.65;;
74632;SDS011;63139;52.018;8.552;2023-04-01T03:27:43;1.15;;;0.60;;
74632;SDS011;63139;52.018;8.552;2023-04-01T03:30:11;1.98;;;0.52;;
74632;SDS011;63139;52.018;8.552;2023-04-01T03:32:47;0.93;;;0.50;;
74632;SDS011;63139;52.018;8.552;2023-04-01T03:35:15;1.27;;;0.60;;
74632;SDS011;63139;52.018;8.552;2023-04-01T03:37:44;1.10;;;0.60;;
74632;SDS011;63139;52.018;8.552;2023-04-01T03:40:12;2.80;;;0.63;;
74632;SDS011;63139;52.018;8.552;2023-04-01T03:42:41;0.85;;;0.50;;
74632;SDS011;63139;52.018;8.552;2023-04-01T03:45:11;0.82;;;0.50;;
74632;SDS011;63139;52.018;8.552;2023-04-01T03:47:39;1.73;;;0.43;;
74632;SDS011;63139;52.018;8.552;2023-04-01T03:50:07;1.17;;;0.50;;
74632;SDS011;63139;52.018;8.552;2023-04-01T03:52:36;1.42;;;0.63;;
74632;SDS011;63139;52.018;8.552;2023-04-01T03:55:04;1.38;;;0.60;;
74632;SDS011;63139;52.018;8.552;2023-04-01T03:57:32;0.98;;;0.60;;
74632;SDS011;63139;52.018;8.552;2023-04-01T04:00:13;0.40;;;0.40;;
74632;SDS011;63139;52.018;8.552;2023-04-01T04:02:45;2.05;;;0.57;;
74632;SDS011;63139;52.018;8.552;2023-04-01T04:05:18;0.85;;;0.50;;
74632;SDS011;63139;52.018;8.552;2023-04-01T04:07:46;2.10;;;0.55;;
74632;SDS011;63139;52.018;8.552;2023-04-01T04:10:14;1.10;;;0.50;;
74632;SDS011;63139;52.018;8.552;2023-04-01T04:12:42;2.40;;;0.73;;
74632;SDS011;63139;52.018;8.552;2023-04-01T04:15:10;1.55;;;0.50;;
74632;SDS011;63139;52.018;8.552;2023-04-01T04:17:40;0.63;;;0.60;;
74632;SDS011;63139;52.018;8.552;2023-04-01T04:20:08;1.45;;;0.52;;
74632;SDS011;63139;52.018;8.552;2023-04-01T04:22:37;1.38;;;0.50;;
74632;SDS011;63139;52.018;8.552;2023-04-01T04:25:07;1.33;;;0.57;;
74632;SDS011;63139;52.018;8.552;2023-04-01T04:27:36;0.68;;;0.38;;
74632;SDS011;63139;52.018;8.552;2023-04-01T04:30:09;0.52;;;0.50;;
74632;SDS011;63139;52.018;8.552;2023-04-01T04:32:40;1.05;;;0.68;;
74632;SDS011;63139;52.018;8.552;2023-04-01T04:35:10;1.00;;;0.55;;
74632;SDS011;63139;52.018;8.552;2023-04-01T04:37:38;1.25;;;0.60;;
74632;SDS011;63139;52.018;8.552;2023-04-01T04:40:07;0.80;;;0.52;;
74632;SDS011;63139;52.018;8.552;2023-04-01T04:42:35;0.40;;;0.40;;
74632;SDS011;63139;52.018;8.552;2023-04-01T04:45:08;0.73;;;0.60;;
74632;SDS011;63139;52.018;8.552;2023-04-01T04:47:44;0.57;;;0.52;;
74632;SDS011;63139;52.018;8.552;2023-04-01T04:50:11;0.65;;;0.65;;
74632;SDS011;63139;52.018;8.552;2023-04-01T04:52:40;0.63;;;0.57;;
74632;SDS011;63139;52.018;8.552;2023-04-01T04:55:08;0.65;;;0.55;;
74632;SDS011;63139;52.018;8.552;2023-04-01T04:57:36;0.85;;;0.60;;
74632;SDS011;63139;52.018;8.552;2023-04-01T05:00:05;1.65;;;0.70;;
74632;SDS011;63139;52.018;8.552;2023-04-01T05:02:53;1.67;;;0.60;;
74632;SDS011;63139;52.018;8.552;2023-04-01T05:05:21;1.40;;;0.80;;
74632;SDS011;63139;52.018;8.552;2023-04-01T05:07:49;0.60;;;0.60;;
74632;SDS011;63139;52.018;8.552;2023-04-01T05:10:18;1.55;;;0.77;;
74632;SDS011;63139;52.018;8.552;2023-04-01T05:12:46;1.23;;;0.70;;
74632;SDS011;63139;52.018;8.552;2023-04-01T05:15:17;1.05;;;0.70;;
74632;SDS011;63139;52.018;8.552;2023-04-01T05:17:45;1.63;;;0.85;;
74632;SDS011;63139;52.018;8.552;2023-04-01T05:20:15;1.02;;;1.00;;
74632;SDS011;63139;52.018;8.552;2023-04-01T05:22:43;3.72;;;0.82;;
74632;SDS011;63139;52.018;8.552;2023-04-01T05:25:11;1.92;;;1.08;;
74632;SDS011;63139;52.018;8.552;2023-04-01T05:27:39;0.60;;;0.60;;
74632;SDS011;63139;52.018;8.552;2023-04-01T05:30:07;1.60;;;0.90;;
74632;SDS011;63139;52.018;8.552;2023-04-01T05:32:54;2.78;;;1.05;;
74632;SDS011;63139;52.018;8.552;2023-04-01T05:35:24;1.58;;;0.80;;
74632;SDS011;63139;52.018;8.552;2023-04-01T05:37:52;0.70;;;0.70;;
74632;SDS011;63139;52.018;8.552;2023-04-01T05:40:20;1.27;;;0.80;;
74632;SDS011;63139;52.018;8.552;2023-04-01T05:42:48;1.05;;;0.80;;
74632;SDS011;63139;52.018;8.552;2023-04-01T05:45:16;1.20;;;0.73;;
74632;SDS011;63139;52.018;8.552;2023-04-01T05:48:02;0.60;;;0.60;;
74632;SDS011;63139;52.018;8.552;2023-04-01T05:50:37;1.05;;;0.50;;
74632;SDS011;63139;52.018;8.552;2023-04-01T05:53:09;0.85;;;0.70;;
74632;SDS011;63139;52.018;8.552;2023-04-01T05:55:40;1.60;;;0.70;;
74632;SDS011;63139;52.018;8.552;2023-04-01T05:58:08;0.63;;;0.55;;
74632;SDS011;63139;52.018;8.552;2023-04-01T06:00:38;0.50;;;0.50;;
74632;SDS011;63139;52.018;8.552;2023-04-01T06:03:06;1.50;;;0.50;;
74632;SDS011;63139;52.018;8.552;2023-04-01T06:05:38;0.88;;;0.63;;
74632;SDS011;63139;52.018;8.552;2023-04-01T06:08:09;0.40;;;0.40;;
74632;SDS011;63139;52.018;8.552;2023-04-01T06:10:43;0.40;;;0.40;;
74632;SDS011;63139;52.018;8.552;2023-04-01T06:13:22;2.45;;;0.50;;
74632;SDS011;63139;52.018;8.552;2023-04-01T06:15:59;1.27;;;0.47;;
74632;SDS011;63139;52.018;8.552;2023-04-01T06:24:37;0.65;;;0.50;;
74632;SDS011;63139;52.018;8.552;2023-04-01T06:27:21;0.88;;;0.60;;
74632;SDS011;63139;52.018;8.552;2023-04-01T06:30:10;2.67;;;0.70;;
74632;SDS011;63139;52.018;8.552;2023-04-01T06:33:01;0.50;;;0.40;;
74632;SDS011;63139;52.018;8.552;2023-04-01T06:35:50;2.08;;;0.70;;
74632;SDS011;63139;52.018;8.552;2023-04-01T06:38:32;0.57;;;0.50;;
74632;SDS011;63139;52.018;8.552;2023-04-01T06:44:16;2.10;;;0.80;;
74632;SDS011;63139;52.018;8.552;2023-04-01T06:47:17;0.40;;;0.40;;
74632;SDS011;63139;52.018;8.552;2023-04-01T06:50:23;1.25;;;0.40;;
74632;SDS011;63139;52.018;8.552;2023-04-01T06:53:16;0.63;;;0.45;;
74632;SDS011;63139;52.018;8.552;2023-04-01T06:56:04;1.55;;;0.73;;
74632;SDS011;63139;52.018;8.552;2023-04-01T06:58:46;0.65;;;0.40;;
74632;SDS011;63139;52.018;8.552;2023-04-01T07:01:18;0.60;;;0.60;;
74632;SDS011;63139;52.018;8.552;2023-04-01T07:03:51;1.23;;;0.73;;
74632;SDS011;63139;52.018;8.552;2023-04-01T07:06:26;0.88;;;0.70;;
74632;SDS011;63139;52.018;8.552;2023-04-01T07:09:02;0.70;;;0.70;;
74632;SDS011;63139;52.018;8.552;2023-04-01T07:12:03;0.70;;;0.60;;
74632;SDS011;63139;52.018;8.552;2023-04-01T07:15:01;0.75;;;0.70;;
74632;SDS011;63139;52.018;8.552;2023-04-01T07:17:39;1.55;;;0.80;;
74632;SDS011;63139;52.018;8.552;2023-04-01T07:20:11;1.00;;;0.90;;
74632;SDS011;63139;52.018;8.552;2023-04-01T07:22:44;1.70;;;0.90;;
74632;SDS011;63139;52.018;8.552;2023-04-01T07:25:33;0.70;;;0.70;;
74632;SDS011;63139;52.018;8.552;2023-04-01T07:28:22;1.85;;;0.90;;
74632;SDS011;63139;52.018;8.552;2023-04-01T07:31:04;2.35;;;0.90;;
74632;SDS011;63139;52.018;8.552;2023-04-01T07:33:43;0.98;;;0.98;;
74632;SDS011;63139;52.018;8.552;2023-04-01T07:36:18;1.02;;;0.90;;
74632;SDS011;63139;52.018;8.552;2023-04-01T07:38:54;2.60;;;1.10;;
74632;SDS011;63139;52.018;8.552;2023-04-01T07:41:51;1.00;;;1.00;;
74632;SDS011;63139;52.018;8.552;2023-04-01T07:44:25;1.38;;;1.10;;
74632;SDS011;63139;52.018;8.552;2023-04-01T07:47:11;1.20;;;1.10;;
74632;SDS011;63139;52.018;8.552;2023-04-01T07:49:53;2.40;;;1.20;;
74632;SDS011;63139;52.018;8.552;2023-04-01T07:52:35;1.10;;;1.02;;
74632;SDS011;63139;52.018;8.552;2023-04-01T07:55:20;1.98;;;1.20;;
74632;SDS011;63139;52.018;8.552;2023-04-01T07:57:55;1.30;;;1.17;;
74632;SDS011;63139;52.018;8.552;2023-04-01T08:00:37;3.08;;;1.00;;
74632;SDS011;63139;52.018;8.552;2023-04-01T08:03:26;1.35;;;1.00;;
74632;SDS011;63139;52.018;8.552;2023-04-01T08:06:05;1.05;;;0.98;;
74632;SDS011;63139;52.018;8.552;2023-04-01T08:08:44;1.35;;;1.08;;
74632;SDS011;63139;52.018;8.552;2023-04-01T08:12:00;1.10;;;1.00;;
74632;SDS011;63139;52.018;8.552;2023-04-01T08:15:12;2.28;;;1.05;;
74632;SDS011;63139;52.018;8.552;2023-04-01T08:18:10;2.08;;;0.90;;
74632;SDS011;63139;52.018;8.552;2023-04-01T08:20:50;2.60;;;1.10;;
74632;SDS011;63139;52.018;8.552;2023-04-01T08:23:24;1.55;;;1.45;;
74632;SDS011;63139;52.018;8.552;2023-04-01T08:25:56;1.40;;;1.33;;
74632;SDS011;63139;52.018;8.552;2023-04-01T08:28:33;1.45;;;1.00;;
74632;SDS011;63139;52.018;8.552;2023-04-01T08:31:10;1.00;;;1.00;;
74632;SDS011;63139;52.018;8.552;2023-04-01T08:33:43;0.88;;;0.80;;
74632;SDS011;63139;52.018;8.552;2023-04-01T08:36:16;1.00;;;0.90;;
74632;SDS011;63139;52.018;8.552;2023-04-01T08:38:59;2.15;;;1.10;;
74632;SDS011;63139;52.018;8.552;2023-04-01T08:41:40;2.05;;;1.13;;
74632;SDS011;63139;52.018;8.552;2023-04-01T08:44:43;1.10;;;1.00;;
74632;SDS011;63139;52.018;8.552;2023-04-01T08:47:40;3.03;;;0.90;;
74632;SDS011;63139;52.018;8.552;2023-04-01T08:53:17;1.48;;;0.90;;
74632;SDS011;63139;52.018;8.552;2023-04-01T08:56:02;2.13;;;0.90;;
74632;SDS011;63139;52.018;8.552;2023-04-01T08:58:47;0.90;;;0.90;;
74632;SDS011;63139;52.018;8.552;2023-04-01T09:01:34;0.98;;;0.90;;
74632;SDS011;63139;52.018;8.552;2023-04-01T09:04:34;1.15;;;1.10;;
74632;SDS011;63139;52.018;8.552;2023-04-01T09:07:15;0.98;;;0.98;;
74632;SDS011;63139;52.018;8.552;2023-04-01T09:10:07;0.88;;;0.88;;
74632;SDS011;63139;52.018;8.552;2023-04-01T09:12:59;1.10;;;1.00;;
74632;SDS011;63139;52.018;8.552;2023-04-01T09:15:54;1.17;;;1.05;;
74632;SDS011;63139;52.018;8.552;2023-04-01T09:22:05;1.30;;;1.08;;
74632;SDS011;63139;52.018;8.552;2023-04-01T09:24:52;1.20;;;1.00;;
74632;SDS011;63139;52.018;8.552;2023-04-01T09:27:36;1.05;;;1.00;;
74632;SDS011;63139;52.018;8.552;2023-04-01T09:30:31;1.13;;;1.02;;
74632;SDS011;63139;52.018;8.552;2023-04-01T09:33:10;1.00;;;1.00;;
74632;SDS011;63139;52.018;8.552;2023-04-01T09:36:12;1.85;;;0.98;;
74632;SDS011;63139;52.018;8.552;2023-04-01T09:38:53;1.10;;;1.00;;
74632;SDS011;63139;52.018;8.552;2023-04-01T09:41:28;1.00;;;0.90;;
74632;SDS011;63139;52.018;8.552;2023-04-01T09:44:11;0.93;;;0.93;;
74632;SDS011;63139;52.018;8.552;2023-04-01T09:47:03;1.00;;;1.00;;
74632;SDS011;63139;52.018;8.552;2023-04-01T09:50:14;1.08;;;0.98;;
74632;SDS011;63139;52.018;8.552;2023-04-01T09:52:56;1.75;;;0.98;;
74632;SDS011;63139;52.018;8.552;2023-04-01T09:55:46;1.10;;;1.10;;
74632;SDS011;63139;52.018;8.552;2023-04-01T10:02:21;0.90;;;0.90;;
74632;SDS011;63139;52.018;8.552;2023-04-01T10:08:14;0.80;;;0.80;;
74632;SDS011;63139;52.018;8.552;2023-04-01T10:11:09;1.10;;;0.80;;
74632;SDS011;63139;52.018;8.552;2023-04-01T10:14:06;0.70;;;0.70;;
74632;SDS011;63139;52.018;8.552;2023-04-01T10:16:58;0.80;;;0.80;;
74632;SDS011;63139;52.018;8.552;2023-04-01T10:19:51;0.80;;;0.80;;
74632;SDS011;63139;52.018;8.552;2023-04-01T10:22:47;0.90;;;0.90;;
74632;SDS011;63139;52.018;8.552;2023-04-01T10:25:36;1.05;;;0.80;;
74632;SDS011;63139;52.018;8.552;2023-04-01T10:28:29;1.38;;;0.90;;
74632;SDS011;63139;52.018;8.552;2023-04-01T10:31:32;2.05;;;0.90;;
74632;SDS011;63139;52.018;8.552;2023-04-01T10:34:31;1.02;;;0.90;;
74632;SDS011;63139;52.018;8.552;2023-04-01T10:37:28;0.90;;;0.90;;
74632;SDS011;63139;52.018;8.552;2023-04-01T10:43:32;1.00;;;1.00;;
74632;SDS011;63139;52.018;8.552;2023-04-01T10:46:35;0.80;;;0.80;;
74632;SDS011;63139;52.018;8.552;2023-04-01T10:49:29;0.90;;;0.90;;
74632;SDS011;63139;52.018;8.552;2023-04-01T10:52:17;0.85;;;0.80;;
74632;SDS011;63139;52.018;8.552;2023-04-01T10:55:31;1.05;;;1.00;;
74632;SDS011;63139;52.018;8.552;2023-04-01T10:58:40;1.00;;;0.90;;
74632;SDS011;63139;52.018;8.552;2023-04-01T11:05:52;1.42;;;0.90;;
74632;SDS011;63139;52.018;8.552;2023-04-01T11:21:22;1.05;;;1.05;;
74632;SDS011;63139;52.018;8.552;2023-04-01T11:24:34;1.17;;;1.00;;
74632;SDS011;63139;52.018;8.552;2023-04-01T11:27:53;0.90;;;0.90;;
74632;SDS011;63139;52.018;8.552;2023-04-01T11:30:44;1.10;;;1.00;;
74632;SDS011;63139;52.018;8.552;2023-04-01T11:33:26;1.33;;;1.10;;
74632;SDS011;63139;52.018;8.552;2023-04-01T11:36:03;1.30;;;1.20;;
74632;SDS011;63139;52.018;8.552;2023-04-01T11:38:52;1.10;;;1.10;;
74632;SDS011;63139;52.018;8.552;2023-04-01T11:41:49;1.40;;;1.30;;
74632;SDS011;63139;52.018;8.552;2023-04-01T11:44:43;1.20;;;1.20;;
74632;SDS011;63139;52.018;8.552;2023-04-01T11:47:37;1.45;;;1.35;;
74632;SDS011;63139;52.018;8.552;2023-04-01T11:50:19;1.40;;;1.30;;
74632;SDS011;63139;52.018;8.552;2023-04-01T11:53:00;1.13;;;1.13;;
74632;SDS011;63139;52.018;8.552;2023-04-01T11:55:41;1.02;;;0.95;;
74632;SDS011;63139;52.018;8.552;2023-04-01T11:58:28;1.02;;;1.00;;
74632;SDS011;63139;52.018;8.552;2023-04-01T12:01:11;1.00;;;1.00;;
74632;SDS011;63139;52.018;8.552;2023-04-01T12:06:57;1.13;;;1.10;;
74632;SDS011;63139;52.018;8.552;2023-04-01T12:09:34;2.60;;;1.30;;
74632;SDS011;63139;52.018;8.552;2023-04-01T12:12:11;1.00;;;1.00;;
74632;SDS011;63139;52.018;8.552;2023-04-01T12:14:48;1.13;;;1.02;;
74632;SDS011;63139;52.018;8.552;2023-04-01T12:17:29;1.95;;;1.15;;
74632;SDS011;63139;52.018;8.552;2023-04-01T12:20:22;1.10;;;1.10;;
74632;SDS011;63139;52.018;8.552;2023-04-01T12:22:59;1.17;;;1.08;;
74632;SDS011;63139;52.018;8.552;2023-04-01T12:25:38;0.95;;;0.95;;
74632;SDS011;63139;52.018;8.552;2023-04-01T12:28:21;0.90;;;0.90;;
74632;SDS011;63139;52.018;8.552;2023-04-01T12:30:59;1.60;;;0.95;;
74632;SDS011;63139;52.018;8.552;2023-04-01T12:33:41;1.00;;;1.00;;
74632;SDS011;63139;52.018;8.552;2023-04-01T12:36:21;1.00;;;1.00;;
74632;SDS011;63139;52.018;8.552;2023-04-01T12:39:11;1.33;;;1.00;;
74632;SDS011;63139;52.018;8.552;2023-04-01T12:41:49;1.27;;;1.17;;
74632;SDS011;63139;52.018;8.552;2023-04-01T12:44:32;1.20;;;1.20;;
74632;SDS011;63139;52.018;8.552;2023-04-01T12:47:13;2.05;;;1.10;;
74632;SDS011;63139;52.018;8.552;2023-04-01T12:50:15;0.90;;;0.90;;
74632;SDS011;63139;52.018;8.552;2023-04-01T12:53:08;1.00;;;1.00;;
74632;SDS011;63139;52.018;8.552;2023-04-01T12:55:46;1.10;;;1.08;;
74632;SDS011;63139;52.018;8.552;2023-04-01T12:58:33;1.05;;;1.00;;
74632;SDS011;63139;52.018;8.552;2023-04-01T13:01:23;1.40;;;1.30;;
74632;SDS011;63139;52.018;8.552;2023-04-01T13:04:13;1.90;;;1.30;;
74632;SDS011;63139;52.018;8.552;2023-04-01T13:07:10;1.10;;;1.10;;
74632;SDS011;63139;52.018;8.552;2023-04-01T13:10:00;2.63;;;1.17;;
74632;SDS011;63139;52.018;8.552;2023-04-01T13:12:40;1.35;;;1.20;;
74632;SDS011;63139;52.018;8.552;2023-04-01T13:15:26;2.20;;;1.33;;
74632;SDS011;63139;52.018;8.552;2023-04-01T13:18:02;1.50;;;1.20;;
74632;SDS011;63139;52.018;8.552;2023-04-01T13:20:43;1.38;;;1.00;;
74632;SDS011;63139;52.018;8.552;2023-04-01T13:23:20;1.58;;;1.08;;
74632;SDS011;63139;52.018;8.552;2023-04-01T13:26:01;0.98;;;0.70;;
74632;SDS011;63139;52.018;8.552;2023-04-01T13:28:41;0.60;;;0.60;;
74632;SDS011;63139;52.018;8.552;2023-04-01T13:31:20;0.70;;;0.70;;
74632;SDS011;63139;52.018;8.552;2023-04-01T13:34:05;1.27;;;0.90;;
74632;SDS011;63139;52.018;8.552;2023-04-01T13:36:47;1.77;;;0.90;;
74632;SDS011;63139;52.018;8.552;2023-04-01T13:39:32;0.73;;;0.73;;
74632;SDS011;63139;52.018;8.552;2023-04-01T13:42:13;0.80;;;0.80;;
74632;SDS011;63139;52.018;8.552;2023-04-01T13:44:48;1.73;;;1.00;;
74632;SDS011;63139;52.018;8.552;2023-04-01T13:47:23;0.77;;;0.77;;
74632;SDS011;63139;52.018;8.552;2023-04-01T13:53:31;2.97;;;0.95;;
74632;SDS011;63139;52.018;8.552;2023-04-01T13:56:09;0.80;;;0.80;;
74632;SDS011;63139;52.018;8.552;2023-04-01T13:58:57;0.70;;;0.70;;
74632;SDS011;63139;52.018;8.552;2023-04-01T14:01:35;0.70;;;0.70;;
74632;SDS011;63139;52.018;8.552;2023-04-01T14:04:13;2.10;;;0.80;;
74632;SDS011;63139;52.018;8.552;2023-04-01T14:07:05;1.77;;;1.00;;
74632;SDS011;63139;52.018;8.552;2023-04-01T14:09:44;1.92;;;1.20;;
74632;SDS011;63139;52.018;8.552;2023-04-01T14:12:23;1.30;;;1.20;;
74632;SDS011;63139;52.018;8.552;2023-04-01T14:15:04;1.30;;;1.20;;
74632;SDS011;63139;52.018;8.552;2023-04-01T14:17:50;1.45;;;1.30;;
74632;SDS011;63139;52.018;8.552;2023-04-01T14:20:39;1.10;;;1.10;;
74632;SDS011;63139;52.018;8.552;2023-04-01T14:23:20;2.10;;;1.30;;
74632;SDS011;63139;52.018;8.552;2023-04-01T14:26:11;2.63;;;1.73;;
74632;SDS011;63139;52.018;8.552;2023-04-01T14:29:02;1.60;;;1.50;;
74632;SDS011;63139;52.018;8.552;2023-04-01T14:31:44;2.85;;;1.75;;
74632;SDS011;63139;52.018;8.552;2023-04-01T14:34:21;4.50;;;1.80;;
74632;SDS011;63139;52.018;8.552;2023-04-01T14:37:05;1.63;;;1.30;;
74632;SDS011;63139;52.018;8.552;2023-04-01T14:39:44;1.90;;;1.27;;
74632;SDS011;63139;52.018;8.552;2023-04-01T14:42:33;1.27;;;1.17;;
74632;SDS011;63139;52.018;8.552;2023-04-01T14:45:19;1.23;;;1.13;;
74632;SDS011;63139;52.018;8.552;2023-04-01T14:48:07;3.28;;;1.48;;
74632;SDS011;63139;52.018;8.552;2023-04-01T14:50:45;1.80;;;1.45;;
74632;SDS011;63139;52.018;8.552;2023-04-01T14:53:23;1.05;;;1.05;;
74632;SDS011;63139;52.018;8.552;2023-04-01T14:55:55;0.90;;;0.90;;
74632;SDS011;63139;52.018;8.552;2023-04-01T14:58:40;1.30;;;1.20;;
74632;SDS011;63139;52.018;8.552;2023-04-01T15:03:48;1.00;;;1.00;;
74632;SDS011;63139;52.018;8.552;2023-04-01T15:06:32;1.25;;;1.10;;
74632;SDS011;63139;52.018;8.552;2023-04-01T15:09:12;1.25;;;1.20;;
74632;SDS011;63139;52.018;8.552;2023-04-01T15:11:48;1.45;;;1.30;;
74632;SDS011;63139;52.018;8.552;2023-04-01T15:14:39;1.38;;;1.23;;
74632;SDS011;63139;52.018;8.552;2023-04-01T15:17:29;1.40;;;1.30;;
74632;SDS011;63139;52.018;8.552;2023-04-01T15:23:02;1.50;;;1.40;;
74632;SDS011;63139;52.018;8.552;2023-04-01T15:26:04;2.25;;;1.95;;
74632;SDS011;63139;52.018;8.552;2023-04-01T15:28:42;3.38;;;1.80;;
74632;SDS011;63139;52.018;8.552;2023-04-01T15:31:24;1.63;;;1.50;;
74632;SDS011;63139;52.018;8.552;2023-04-01T15:34:04;1.70;;;1.60;;
74632;SDS011;63139;52.018;8.552;2023-04-01T15:36:47;1.92;;;1.55;;
74632;SDS011;63139;52.018;8.552;2023-04-01T15:39:22;2.17;;;1.60;;
74632;SDS011;63139;52.018;8.552;2023-04-01T15:42:02;1.60;;;1.50;;
74632;SDS011;63139;52.018;8.552;2023-04-01T15:45:01;1.70;;;1.50;;
74632;SDS011;63139;52.018;8.552;2023-04-01T15:47:39;1.92;;;1.30;;
74632;SDS011;63139;52.018;8.552;2023-04-01T15:53:37;1.40;;;1.30;;
74632;SDS011;63139;52.018;8.552;2023-04-01T15:56:19;1.25;;;1.25;;
74632;SDS011;63139;52.018;8.552;2023-04-01T15:59:09;2.10;;;1.90;;
74632;SDS011;63139;52.018;8.552;2023-04-01T16:01:50;2.97;;;2.35;;
74632;SDS011;63139;52.018;8.552;2023-04-01T16:07:21;3.38;;;2.13;;
74632;SDS011;63139;52.018;8.552;2023-04-01T16:10:00;3.20;;;2.90;;
74632;SDS011;63139;52.018;8.552;2023-04-01T16:12:41;2.40;;;2.20;;
74632;SDS011;63139;52.018;8.552;2023-04-01T16:15:22;2.30;;;2.10;;
74632;SDS011;63139;52.018;8.552;2023-04-01T16:18:06;2.97;;;2.20;;
74632;SDS011;63139;52.018;8.552;2023-04-01T16:20:46;1.83;;;1.73;;
74632;SDS011;63139;52.018;8.552;2023-04-01T16:23:22;2.13;;;1.92;;
74632;SDS011;63139;52.018;8.552;2023-04-01T16:26:01;2.03;;;1.50;;
74632;SDS011;63139;52.018;8.552;2023-04-01T16:28:36;1.65;;;1.30;;
74632;SDS011;63139;52.018;8.552;2023-04-01T16:31:12;1.25;;;1.10;;
74632;SDS011;63139;52.018;8.552;2023-04-01T16:33:52;2.80;;;1.30;;
74632;SDS011;63139;52.018;8.552;2023-04-01T16:36:26;1.20;;;1.10;;
74632;SDS011;63139;52.018;8.552;2023-04-01T16:39:06;1.45;;;1.00;;
74632;SDS011;63139;52.018;8.552;2023-04-01T16:41:49;1.73;;;1.10;;
74632;SDS011;63139;52.018;8.552;2023-04-01T16:44:21;1.52;;;1.20;;
74632;SDS011;63139;52.018;8.552;2023-04-01T16:46:51;1.50;;;1.00;;
74632;SDS011;63139;52.018;8.552;2023-04-01T16:49:29;2.63;;;1.30;;
74632;SDS011;63139;52.018;8.552;2023-04-01T16:52:12;1.25;;;1.00;;
74632;SDS011;63139;52.018;8.552;2023-04-01T16:54:47;2.25;;;1.23;;
74632;SDS011;63139;52.018;8.552;2023-04-01T16:57:23;1.80;;;1.70;;
74632;SDS011;63139;52.018;8.552;2023-04-01T16:59:56;2.05;;;1.30;;
74632;SDS011;63139;52.018;8.552;2023-04-01T17:02:31;1.80;;;1.25;;